sensor_id;sensor_type;location;lat;lon;timestamp;pressure;altitude;pressure_sealevel;temperature;humidity
81299;BME280;70766;53.170;18.160;2024-02-15T00:00:32;101474.25;;;5.09;100.00
81299;BME280;70766;53.170;18.160;2024-02-15T00:03:21;101473.49;;;5.10;100.00
81299;BME280;70766;53.170;18.160;2024-02-15T00:05:50;101471.84;;;5.11;100.00
81299;BME280;70766;53.170;18.160;2024-02-15T00:08:18;101473.17;;;5.11;100.00
81299;BME280;70766;53.170;18.160;2024-02-15T00:10:49;101473.23;;;5.12;100.00
81299;BME280;70766;53.170;18.160;2024-02-15T00:13:17;101475.08;;;5.13;100.00
81299;BME280;70766;53.170;18.160;2024-02-15T00:15:45;101475.37;;;5.13;100.00
81299;BME280;70766;53.170;18.160;2024-02-15T00:18:17;101475.38;;;5.13;100.00
81299;BME280;70766;53.170;18.160;2024-02-15T00:20:47;101473.17;;;5.15;100.00
81299;BME280;70766;53.170;18.160;2024-02-15T00:23:15;101473.49;;;5.17;100.00
81299;BME280;70766;53.170;18.160;2024-02-15T00:25:44;101466.37;;;5.17;100.00
81299;BME280;70766;53.170;18.160;2024-02-15T00:28:13;101466.27;;;5.17;100.00
81299;BME280;70766;53.170;18.160;2024-02-15T00:30:41;101466.70;;;5.17;100.00
81299;BME280;70766;53.170;18.160;2024-02-15T00:33:10;101466.94;;;5.17;100.00
81299;BME280;70766;53.170;18.160;2024-02-15T00:35:39;101465.64;;;5.18;100.00
81299;BME280;70766;53.170;18.160;2024-02-15T00:38:07;101469.25;;;5.20;100.00
81299;BME280;70766;53.170;18.160;2024-02-15T00:40:36;101461.50;;;5.21;100.00
81299;BME280;70766;53.170;18.160;2024-02-15T00:43:04;101460.70;;;5.22;100.00
81299;BME280;70766;53.170;18.160;2024-02-15T00:45:33;101464.83;;;5.23;100.00
81299;BME280;70766;53.170;18.160;2024-02-15T00:48:01;101463.33;;;5.24;100.00
81299;BME280;70766;53.170;18.160;2024-02-15T00:50:29;101463.62;;;5.24;100.00
81299;BME280;70766;53.170;18.160;2024-02-15T00:52:58;101461.17;;;5.24;100.00
81299;BME280;70766;53.170;18.160;2024-02-15T00:55:26;101460.98;;;5.26;100.00
81299;BME280;70766;53.170;18.160;2024-02-15T00:57:55;101459.62;;;5.27;100.00
81299;BME280;70766;53.170;18.160;2024-02-15T01:00:23;101461.43;;;5.28;100.00
81299;BME280;70766;53.170;18.160;2024-02-15T01:02:51;101461.90;;;5.29;100.00
81299;BME280;70766;53.170;18.160;2024-02-15T01:05:21;101461.64;;;5.31;100.00
81299;BME280;70766;53.170;18.160;2024-02-15T01:07:49;101459.89;;;5.32;100.00
81299;BME280;70766;53.170;18.160;2024-02-15T01:10:18;101460.89;;;5.33;100.00
81299;BME280;70766;53.170;18.160;2024-02-15T01:12:46;101461.55;;;5.33;100.00
81299;BME280;70766;53.170;18.160;2024-02-15T01:15:14;101462.58;;;5.33;100.00
81299;BME280;70766;53.170;18.160;2024-02-15T01:17:46;101460.69;;;5.34;100.00
81299;BME280;70766;53.170;18.160;2024-02-15T01:20:14;101459.38;;;5.35;100.00
81299;BME280;70766;53.170;18.160;2024-02-15T01:22:43;101460.98;;;5.36;100.00
81299;BME280;70766;53.170;18.160;2024-02-15T01:25:12;101456.67;;;5.37;100.00
81299;BME280;70766;53.170;18.160;2024-02-15T01:27:40;101452.58;;;5.37;100.00
81299;BME280;70766;53.170;18.160;2024-02-15T01:30:09;101456.80;;;5.39;100.00
81299;BME280;70766;53.170;18.160;2024-02-15T01:32:38;101453.07;;;5.39;100.00
81299;BME280;70766;53.170;18.160;2024-02-15T01:35:10;101452.20;;;5.40;100.00
81299;BME280;70766;53.170;18.160;2024-02-15T01:37:39;101452.72;;;5.42;100.00
81299;BME280;70766;53.170;18.160;2024-02-15T01:40:07;101448.69;;;5.43;100.00
81299;BME280;70766;53.170;18.160;2024-02-15T01:42:35;101449.27;;;5.44;100.00
81299;BME280;70766;53.170;18.160;2024-02-15T01:45:04;101445.27;;;5.45;100.00
81299;BME280;70766;53.170;18.160;2024-02-15T01:47:32;101444.45;;;5.46;100.00
81299;BME280;70766;53.170;18.160;2024-02-15T01:50:01;101440.23;;;5.47;100.00
81299;BME280;70766;53.170;18.160;2024-02-15T01:52:31;101440.61;;;5.47;100.00
81299;BME280;70766;53.170;18.160;2024-02-15T01:55:00;101435.85;;;5.48;100.00
81299;BME280;70766;53.170;18.160;2024-02-15T01:57:35;101438.38;;;5.49;100.00
81299;BME280;70766;53.170;18.160;2024-02-15T02:00:07;101438.29;;;5.51;100.00
81299;BME280;70766;53.170;18.160;2024-02-15T02:02:38;101436.07;;;5.51;100.00
81299;BME280;70766;53.170;18.160;2024-02-15T02:05:07;101435.23;;;5.52;100.00
81299;BME280;70766;53.170;18.160;2024-02-15T02:07:37;101435.67;;;5.52;100.00
81299;BME280;70766;53.170;18.160;2024-02-15T02:10:07;101436.52;;;5.53;100.00
81299;BME280;70766;53.170;18.160;2024-02-15T02:12:35;101435.64;;;5.54;100.00
81299;BME280;70766;53.170;18.160;2024-02-15T02:15:04;101431.44;;;5.55;100.00
81299;BME280;70766;53.170;18.160;2024-02-15T02:17:32;101428.50;;;5.56;100.00
81299;BME280;70766;53.170;18.160;2024-02-15T02:20:02;101431.44;;;5.57;100.00
81299;BME280;70766;53.170;18.160;2024-02-15T02:22:36;101424.14;;;5.59;100.00
81299;BME280;70766;53.170;18.160;2024-02-15T02:25:07;101422.36;;;5.60;100.00
81299;BME280;70766;53.170;18.160;2024-02-15T02:27:39;101423.98;;;5.62;100.00
81299;BME280;70766;53.170;18.160;2024-02-15T02:30:17;101427.39;;;5.62;100.00
81299;BME280;70766;53.170;18.160;2024-02-15T02:32:47;101424.27;;;5.64;100.00
81299;BME280;70766;53.170;18.160;2024-02-15T02:35:16;101421.39;;;5.65;100.00
81299;BME280;70766;53.170;18.160;2024-02-15T02:37:44;101421.83;;;5.66;100.00
81299;BME280;70766;53.170;18.160;2024-02-15T02:40:13;101418.92;;;5.67;100.00
81299;BME280;70766;53.170;18.160;2024-02-15T02:45:19;101420.41;;;5.69;100.00
81299;BME280;70766;53.170;18.160;2024-02-15T02:47:52;101415.58;;;5.69;100.00
81299;BME280;70766;53.170;18.160;2024-02-15T02:50:21;101418.95;;;5.71;100.00
81299;BME280;70766;53.170;18.160;2024-02-15T02:52:51;101419.32;;;5.72;100.00
81299;BME280;70766;53.170;18.160;2024-02-15T02:55:19;101420.54;;;5.74;100.00
81299;BME280;70766;53.170;18.160;2024-02-15T02:57:48;101418.23;;;5.74;100.00
81299;BME280;70766;53.170;18.160;2024-02-15T03:00:17;101422.44;;;5.75;100.00
81299;BME280;70766;53.170;18.160;2024-02-15T03:02:46;101415.44;;;5.75;100.00
81299;BME280;70766;53.170;18.160;2024-02-15T03:05:14;101419.45;;;5.77;100.00
81299;BME280;70766;53.170;18.160;2024-02-15T03:07:43;101411.13;;;5.77;100.00
81299;BME280;70766;53.170;18.160;2024-02-15T03:10:12;101413.85;;;5.78;100.00
81299;BME280;70766;53.170;18.160;2024-02-15T03:12:42;101412.07;;;5.80;100.00
81299;BME280;70766;53.170;18.160;2024-02-15T03:15:16;101410.37;;;5.80;100.00
81299;BME280;70766;53.170;18.160;2024-02-15T03:17:48;101409.77;;;5.81;100.00
81299;BME280;70766;53.170;18.160;2024-02-15T03:20:17;101412.98;;;5.83;100.00
81299;BME280;70766;53.170;18.160;2024-02-15T03:22:57;101414.93;;;5.84;100.00
81299;BME280;70766;53.170;18.160;2024-02-15T03:25:27;101418.07;;;5.85;100.00
81299;BME280;70766;53.170;18.160;2024-02-15T03:27:59;101418.77;;;5.86;100.00
81299;BME280;70766;53.170;18.160;2024-02-15T03:30:32;101423.84;;;5.88;100.00
81299;BME280;70766;53.170;18.160;2024-02-15T03:33:02;101421.95;;;5.90;100.00
81299;BME280;70766;53.170;18.160;2024-02-15T03:35:34;101421.33;;;5.92;100.00
81299;BME280;70766;53.170;18.160;2024-02-15T03:38:03;101422.98;;;5.93;100.00
81299;BME280;70766;53.170;18.160;2024-02-15T03:40:31;101422.29;;;5.95;100.00
81299;BME280;70766;53.170;18.160;2024-02-15T03:43:00;101423.77;;;5.96;100.00
81299;BME280;70766;53.170;18.160;2024-02-15T03:45:29;101424.15;;;5.97;100.00
81299;BME280;70766;53.170;18.160;2024-02-15T03:47:57;101422.27;;;5.99;100.00
81299;BME280;70766;53.170;18.160;2024-02-15T03:50:26;101422.80;;;6.01;100.00
81299;BME280;70766;53.170;18.160;2024-02-15T03:52:54;101422.58;;;6.03;100.00
81299;BME280;70766;53.170;18.160;2024-02-15T03:55:23;101421.13;;;6.03;100.00
81299;BME280;70766;53.170;18.160;2024-02-15T03:57:53;101419.11;;;6.03;100.00
81299;BME280;70766;53.170;18.160;2024-02-15T04:00:24;101418.20;;;6.05;100.00
81299;BME280;70766;53.170;18.160;2024-02-15T04:02:54;101414.36;;;6.06;100.00
81299;BME280;70766;53.170;18.160;2024-02-15T04:05:23;101413.49;;;6.07;100.00
81299;BME280;70766;53.170;18.160;2024-02-15T04:07:51;101408.34;;;6.09;100.00
81299;BME280;70766;53.170;18.160;2024-02-15T04:10:21;101406.20;;;6.11;100.00
81299;BME280;70766;53.170;18.160;2024-02-15T04:12:50;101411.70;;;6.10;100.00
81299;BME280;70766;53.170;18.160;2024-02-15T04:15:18;101412.45;;;6.12;100.00
81299;BME280;70766;53.170;18.160;2024-02-15T04:17:46;101414.23;;;6.13;100.00
81299;BME280;70766;53.170;18.160;2024-02-15T04:20:15;101414.13;;;6.14;100.00
81299;BME280;70766;53.170;18.160;2024-02-15T04:22:45;101416.71;;;6.16;100.00
81299;BME280;70766;53.170;18.160;2024-02-15T04:25:16;101415.89;;;6.17;100.00
81299;BME280;70766;53.170;18.160;2024-02-15T04:27:46;101416.75;;;6.19;100.00
81299;BME280;70766;53.170;18.160;2024-02-15T04:30:15;101423.54;;;6.20;100.00
81299;BME280;70766;53.170;18.160;2024-02-15T04:32:45;101423.90;;;6.24;100.00
81299;BME280;70766;53.170;18.160;2024-02-15T04:35:15;101423.08;;;6.26;100.00
81299;BME280;70766;53.170;18.160;2024-02-15T04:37:43;101426.04;;;6.27;100.00
81299;BME280;70766;53.170;18.160;2024-02-15T04:40:15;101432.02;;;6.26;100.00
81299;BME280;70766;53.170;18.160;2024-02-15T04:42:46;101435.07;;;6.27;100.00
81299;BME280;70766;53.170;18.160;2024-02-15T04:45:15;101433.59;;;6.28;100.00
81299;BME280;70766;53.170;18.160;2024-02-15T04:47:44;101436.58;;;6.28;100.00
81299;BME280;70766;53.170;18.160;2024-02-15T04:50:18;101439.80;;;6.29;100.00
81299;BME280;70766;53.170;18.160;2024-02-15T04:52:47;101436.30;;;6.30;100.00
81299;BME280;70766;53.170;18.160;2024-02-15T04:55:16;101436.33;;;6.32;100.00
81299;BME280;70766;53.170;18.160;2024-02-15T04:57:46;101437.84;;;6.33;100.00
81299;BME280;70766;53.170;18.160;2024-02-15T05:00:17;101435.04;;;6.34;100.00
81299;BME280;70766;53.170;18.160;2024-02-15T05:02:50;101434.93;;;6.35;100.00
81299;BME280;70766;53.170;18.160;2024-02-15T05:05:19;101436.77;;;6.37;100.00
81299;BME280;70766;53.170;18.160;2024-02-15T05:07:47;101434.29;;;6.38;100.00
81299;BME280;70766;53.170;18.160;2024-02-15T05:10:17;101432.03;;;6.38;100.00
81299;BME280;70766;53.170;18.160;2024-02-15T05:12:45;101431.86;;;6.39;100.00
81299;BME280;70766;53.170;18.160;2024-02-15T05:15:16;101430.23;;;6.40;100.00
81299;BME280;70766;53.170;18.160;2024-02-15T05:17:46;101430.73;;;6.41;100.00
81299;BME280;70766;53.170;18.160;2024-02-15T05:20:16;101425.11;;;6.41;100.00
81299;BME280;70766;53.170;18.160;2024-02-15T05:22:45;101423.18;;;6.41;100.00
81299;BME280;70766;53.170;18.160;2024-02-15T05:25:19;101422.94;;;6.41;100.00
81299;BME280;70766;53.170;18.160;2024-02-15T05:27:54;101424.08;;;6.42;100.00
81299;BME280;70766;53.170;18.160;2024-02-15T05:30:27;101424.02;;;6.44;100.00
81299;BME280;70766;53.170;18.160;2024-02-15T05:32:55;101424.42;;;6.44;100.00
81299;BME280;70766;53.170;18.160;2024-02-15T05:35:26;101426.98;;;6.44;100.00
81299;BME280;70766;53.170;18.160;2024-02-15T05:37:56;101425.92;;;6.46;100.00
81299;BME280;70766;53.170;18.160;2024-02-15T05:40:24;101427.48;;;6.46;100.00
81299;BME280;70766;53.170;18.160;2024-02-15T05:42:55;101428.50;;;6.48;100.00
81299;BME280;70766;53.170;18.160;2024-02-15T05:47:53;101421.77;;;6.51;100.00
81299;BME280;70766;53.170;18.160;2024-02-15T05:50:23;101422.88;;;6.50;100.00
81299;BME280;70766;53.170;18.160;2024-02-15T05:52:53;101421.73;;;6.51;100.00
81299;BME280;70766;53.170;18.160;2024-02-15T05:55:23;101422.33;;;6.52;100.00
81299;BME280;70766;53.170;18.160;2024-02-15T05:57:54;101426.33;;;6.53;100.00
81299;BME280;70766;53.170;18.160;2024-02-15T06:00:22;101428.16;;;6.52;100.00
81299;BME280;70766;53.170;18.160;2024-02-15T06:02:51;101432.72;;;6.56;100.00
81299;BME280;70766;53.170;18.160;2024-02-15T06:05:21;101433.61;;;6.57;100.00
81299;BME280;70766;53.170;18.160;2024-02-15T06:07:50;101444.35;;;6.58;100.00
81299;BME280;70766;53.170;18.160;2024-02-15T06:10:19;101445.52;;;6.60;100.00
81299;BME280;70766;53.170;18.160;2024-02-15T06:12:47;101443.95;;;6.63;100.00
81299;BME280;70766;53.170;18.160;2024-02-15T06:15:16;101452.80;;;6.63;100.00
81299;BME280;70766;53.170;18.160;2024-02-15T06:17:46;101453.11;;;6.63;100.00
81299;BME280;70766;53.170;18.160;2024-02-15T06:20:16;101454.43;;;6.66;100.00
81299;BME280;70766;53.170;18.160;2024-02-15T06:22:48;101453.09;;;6.67;100.00
81299;BME280;70766;53.170;18.160;2024-02-15T06:25:17;101457.16;;;6.68;100.00
81299;BME280;70766;53.170;18.160;2024-02-15T06:27:50;101457.45;;;6.73;100.00
81299;BME280;70766;53.170;18.160;2024-02-15T06:30:26;101462.17;;;6.74;100.00
81299;BME280;70766;53.170;18.160;2024-02-15T06:33:13;101466.48;;;6.74;100.00
81299;BME280;70766;53.170;18.160;2024-02-15T06:36:08;101467.21;;;6.73;100.00
81299;BME280;70766;53.170;18.160;2024-02-15T06:38:55;101463.54;;;6.74;100.00
81299;BME280;70766;53.170;18.160;2024-02-15T06:41:42;101465.32;;;6.76;100.00
81299;BME280;70766;53.170;18.160;2024-02-15T06:44:11;101466.92;;;6.77;100.00
81299;BME280;70766;53.170;18.160;2024-02-15T06:46:40;101467.57;;;6.78;100.00
81299;BME280;70766;53.170;18.160;2024-02-15T06:49:09;101463.23;;;6.81;100.00
81299;BME280;70766;53.170;18.160;2024-02-15T06:51:38;101467.26;;;6.82;100.00
81299;BME280;70766;53.170;18.160;2024-02-15T06:54:06;101469.17;;;6.84;100.00
81299;BME280;70766;53.170;18.160;2024-02-15T06:56:38;101470.93;;;6.85;100.00
81299;BME280;70766;53.170;18.160;2024-02-15T06:59:08;101474.27;;;6.87;100.00
81299;BME280;70766;53.170;18.160;2024-02-15T07:01:38;101474.05;;;6.89;100.00
81299;BME280;70766;53.170;18.160;2024-02-15T07:04:06;101473.46;;;6.91;100.00
81299;BME280;70766;53.170;18.160;2024-02-15T07:06:36;101476.36;;;6.90;100.00
81299;BME280;70766;53.170;18.160;2024-02-15T07:09:05;101478.33;;;6.92;100.00
81299;BME280;70766;53.170;18.160;2024-02-15T07:11:38;101483.47;;;6.92;100.00
81299;BME280;70766;53.170;18.160;2024-02-15T07:14:07;101479.89;;;6.92;100.00
81299;BME280;70766;53.170;18.160;2024-02-15T07:16:37;101485.89;;;6.92;100.00
81299;BME280;70766;53.170;18.160;2024-02-15T07:19:06;101489.56;;;6.94;100.00
81299;BME280;70766;53.170;18.160;2024-02-15T07:21:37;101491.89;;;6.96;100.00
81299;BME280;70766;53.170;18.160;2024-02-15T07:24:06;101493.27;;;6.95;100.00
81299;BME280;70766;53.170;18.160;2024-02-15T07:26:34;101494.25;;;6.94;100.00
81299;BME280;70766;53.170;18.160;2024-02-15T07:29:04;101493.29;;;6.96;100.00
81299;BME280;70766;53.170;18.160;2024-02-15T07:31:36;101496.48;;;6.99;100.00
81299;BME280;70766;53.170;18.160;2024-02-15T07:34:04;101491.91;;;7.00;100.00
81299;BME280;70766;53.170;18.160;2024-02-15T07:36:33;101490.52;;;7.02;100.00
81299;BME280;70766;53.170;18.160;2024-02-15T07:39:02;101486.30;;;7.06;100.00
81299;BME280;70766;53.170;18.160;2024-02-15T07:41:33;101485.25;;;7.11;100.00
81299;BME280;70766;53.170;18.160;2024-02-15T07:44:02;101481.60;;;7.14;100.00
81299;BME280;70766;53.170;18.160;2024-02-15T07:46:31;101479.36;;;7.18;100.00
81299;BME280;70766;53.170;18.160;2024-02-15T07:49:00;101474.83;;;7.20;100.00
81299;BME280;70766;53.170;18.160;2024-02-15T07:51:30;101477.55;;;7.24;100.00
81299;BME280;70766;53.170;18.160;2024-02-15T07:53:58;101480.88;;;7.27;100.00
81299;BME280;70766;53.170;18.160;2024-02-15T07:56:26;101480.61;;;7.29;100.00
81299;BME280;70766;53.170;18.160;2024-02-15T07:58:55;101479.98;;;7.32;100.00
81299;BME280;70766;53.170;18.160;2024-02-15T08:01:23;101483.31;;;7.35;100.00
81299;BME280;70766;53.170;18.160;2024-02-15T08:03:53;101484.34;;;7.38;100.00
81299;BME280;70766;53.170;18.160;2024-02-15T08:06:23;101484.67;;;7.44;100.00
81299;BME280;70766;53.170;18.160;2024-02-15T08:08:57;101481.50;;;7.48;100.00
81299;BME280;70766;53.170;18.160;2024-02-15T08:11:25;101488.27;;;7.53;100.00
81299;BME280;70766;53.170;18.160;2024-02-15T08:13:55;101488.31;;;7.60;100.00
81299;BME280;70766;53.170;18.160;2024-02-15T08:16:27;101487.17;;;7.64;100.00
81299;BME280;70766;53.170;18.160;2024-02-15T08:18:55;101492.58;;;7.62;100.00
81299;BME280;70766;53.170;18.160;2024-02-15T08:21:28;101491.56;;;7.64;100.00
81299;BME280;70766;53.170;18.160;2024-02-15T08:23:58;101493.65;;;7.62;100.00
81299;BME280;70766;53.170;18.160;2024-02-15T08:26:27;101492.53;;;7.70;100.00
81299;BME280;70766;53.170;18.160;2024-02-15T08:28:57;101489.33;;;7.77;100.00
81299;BME280;70766;53.170;18.160;2024-02-15T08:31:26;101495.55;;;7.83;100.00
81299;BME280;70766;53.170;18.160;2024-02-15T08:33:54;101495.54;;;7.91;100.00
81299;BME280;70766;53.170;18.160;2024-02-15T08:36:23;101498.25;;;7.95;100.00
81299;BME280;70766;53.170;18.160;2024-02-15T08:38:51;101499.94;;;7.99;100.00
81299;BME280;70766;53.170;18.160;2024-02-15T08:41:19;101500.36;;;8.00;100.00
81299;BME280;70766;53.170;18.160;2024-02-15T08:43:49;101504.42;;;8.03;100.00
81299;BME280;70766;53.170;18.160;2024-02-15T08:46:17;101502.65;;;8.03;100.00
81299;BME280;70766;53.170;18.160;2024-02-15T08:48:45;101497.35;;;8.04;100.00
81299;BME280;70766;53.170;18.160;2024-02-15T08:51:15;101501.56;;;8.06;100.00
81299;BME280;70766;53.170;18.160;2024-02-15T08:53:45;101503.95;;;8.07;100.00
81299;BME280;70766;53.170;18.160;2024-02-15T08:56:14;101500.42;;;8.11;100.00
81299;BME280;70766;53.170;18.160;2024-02-15T08:58:42;101499.16;;;8.12;100.00
81299;BME280;70766;53.170;18.160;2024-02-15T09:01:10;101503.35;;;8.16;100.00
81299;BME280;70766;53.170;18.160;2024-02-15T09:03:41;101505.87;;;8.22;100.00
81299;BME280;70766;53.170;18.160;2024-02-15T09:06:10;101504.75;;;8.25;100.00
81299;BME280;70766;53.170;18.160;2024-02-15T09:08:39;101509.63;;;8.24;100.00
81299;BME280;70766;53.170;18.160;2024-02-15T09:11:07;101508.61;;;8.25;100.00
81299;BME280;70766;53.170;18.160;2024-02-15T09:13:40;101503.86;;;8.26;100.00
81299;BME280;70766;53.170;18.160;2024-02-15T09:16:08;101496.64;;;8.26;100.00
81299;BME280;70766;53.170;18.160;2024-02-15T09:18:37;101488.92;;;8.25;100.00
81299;BME280;70766;53.170;18.160;2024-02-15T09:21:06;101494.22;;;8.29;100.00
81299;BME280;70766;53.170;18.160;2024-02-15T09:23:35;101499.14;;;8.46;100.00
81299;BME280;70766;53.170;18.160;2024-02-15T09:26:03;101507.27;;;8.62;100.00
81299;BME280;70766;53.170;18.160;2024-02-15T09:28:31;101506.92;;;8.67;100.00
81299;BME280;70766;53.170;18.160;2024-02-15T09:31:00;101508.16;;;8.66;100.00
81299;BME280;70766;53.170;18.160;2024-02-15T09:33:29;101508.88;;;8.63;100.00
81299;BME280;70766;53.170;18.160;2024-02-15T09:35:57;101508.58;;;8.67;100.00
81299;BME280;70766;53.170;18.160;2024-02-15T09:38:26;101507.20;;;8.69;100.00
81299;BME280;70766;53.170;18.160;2024-02-15T09:40:54;101512.48;;;8.82;100.00
81299;BME280;70766;53.170;18.160;2024-02-15T09:43:23;101511.07;;;8.99;100.00
81299;BME280;70766;53.170;18.160;2024-02-15T09:45:54;101504.33;;;9.19;100.00
81299;BME280;70766;53.170;18.160;2024-02-15T09:48:25;101501.14;;;9.30;100.00
81299;BME280;70766;53.170;18.160;2024-02-15T09:50:53;101503.16;;;9.35;100.00
81299;BME280;70766;53.170;18.160;2024-02-15T09:53:23;101505.24;;;9.30;100.00
81299;BME280;70766;53.170;18.160;2024-02-15T09:55:56;101505.57;;;9.30;100.00
81299;BME280;70766;53.170;18.160;2024-02-15T09:58:33;101507.46;;;9.27;100.00
81299;BME280;70766;53.170;18.160;2024-02-15T10:01:04;101511.06;;;9.22;100.00
81299;BME280;70766;53.170;18.160;2024-02-15T10:03:38;101510.34;;;9.21;100.00
81299;BME280;70766;53.170;18.160;2024-02-15T10:06:10;101509.71;;;9.11;100.00
81299;BME280;70766;53.170;18.160;2024-02-15T10:08:38;101514.23;;;9.06;100.00
81299;BME280;70766;53.170;18.160;2024-02-15T10:11:08;101518.45;;;9.04;100.00
81299;BME280;70766;53.170;18.160;2024-02-15T10:13:37;101514.23;;;9.04;100.00
81299;BME280;70766;53.170;18.160;2024-02-15T10:16:16;101514.77;;;9.04;100.00
81299;BME280;70766;53.170;18.160;2024-02-15T10:18:45;101518.87;;;9.05;100.00
81299;BME280;70766;53.170;18.160;2024-02-15T10:21:26;101515.41;;;9.04;100.00
81299;BME280;70766;53.170;18.160;2024-02-15T10:24:14;101510.83;;;9.04;100.00
81299;BME280;70766;53.170;18.160;2024-02-15T10:26:48;101512.59;;;9.04;100.00
81299;BME280;70766;53.170;18.160;2024-02-15T10:29:19;101508.66;;;9.01;100.00
81299;BME280;70766;53.170;18.160;2024-02-15T10:31:55;101505.88;;;8.97;100.00
81299;BME280;70766;53.170;18.160;2024-02-15T10:34:24;101501.17;;;8.90;100.00
81299;BME280;70766;53.170;18.160;2024-02-15T10:37:13;101500.75;;;8.83;100.00
81299;BME280;70766;53.170;18.160;2024-02-15T10:39:45;101495.81;;;8.77;100.00
81299;BME280;70766;53.170;18.160;2024-02-15T10:42:13;101500.48;;;8.80;100.00
81299;BME280;70766;53.170;18.160;2024-02-15T10:44:44;101499.19;;;8.89;100.00
81299;BME280;70766;53.170;18.160;2024-02-15T10:47:13;101495.67;;;8.99;100.00
81299;BME280;70766;53.170;18.160;2024-02-15T10:49:41;101499.11;;;9.10;100.00
81299;BME280;70766;53.170;18.160;2024-02-15T10:52:15;101500.02;;;9.21;100.00
81299;BME280;70766;53.170;18.160;2024-02-15T10:54:55;101497.34;;;9.24;100.00
81299;BME280;70766;53.170;18.160;2024-02-15T10:57:31;101494.27;;;9.20;100.00
81299;BME280;70766;53.170;18.160;2024-02-15T11:00:02;101489.17;;;9.20;100.00
81299;BME280;70766;53.170;18.160;2024-02-15T11:02:43;101488.92;;;9.23;100.00
81299;BME280;70766;53.170;18.160;2024-02-15T11:05:15;101486.25;;;9.29;100.00
81299;BME280;70766;53.170;18.160;2024-02-15T11:07:49;101490.23;;;9.35;100.00
81299;BME280;70766;53.170;18.160;2024-02-15T11:10:18;101488.96;;;9.37;100.00
81299;BME280;70766;53.170;18.160;2024-02-15T11:12:46;101483.53;;;9.49;100.00
81299;BME280;70766;53.170;18.160;2024-02-15T11:15:44;101479.40;;;9.56;100.00
81299;BME280;70766;53.170;18.160;2024-02-15T11:18:49;101473.59;;;9.65;100.00
81299;BME280;70766;53.170;18.160;2024-02-15T11:21:55;101472.29;;;9.72;100.00
81299;BME280;70766;53.170;18.160;2024-02-15T11:24:26;101472.75;;;9.77;100.00
81299;BME280;70766;53.170;18.160;2024-02-15T11:27:00;101472.80;;;9.79;100.00
81299;BME280;70766;53.170;18.160;2024-02-15T11:29:52;101473.42;;;9.81;100.00
81299;BME280;70766;53.170;18.160;2024-02-15T11:32:42;101472.67;;;9.83;100.00
81299;BME280;70766;53.170;18.160;2024-02-15T11:35:31;101472.43;;;9.79;100.00
81299;BME280;70766;53.170;18.160;2024-02-15T11:38:00;101469.38;;;9.83;100.00
81299;BME280;70766;53.170;18.160;2024-02-15T11:46:22;101460.59;;;9.95;100.00
81299;BME280;70766;53.170;18.160;2024-02-15T11:48:53;101459.98;;;10.01;100.00
81299;BME280;70766;53.170;18.160;2024-02-15T11:51:31;101463.23;;;9.97;100.00
81299;BME280;70766;53.170;18.160;2024-02-15T11:54:09;101464.10;;;9.96;100.00
81299;BME280;70766;53.170;18.160;2024-02-15T11:59:17;101461.16;;;9.95;100.00
81299;BME280;70766;53.170;18.160;2024-02-15T12:02:03;101459.31;;;10.02;100.00
81299;BME280;70766;53.170;18.160;2024-02-15T12:04:50;101460.04;;;10.06;100.00
81299;BME280;70766;53.170;18.160;2024-02-15T12:07:37;101462.67;;;10.12;100.00
81299;BME280;70766;53.170;18.160;2024-02-15T12:10:24;101461.52;;;10.12;100.00
81299;BME280;70766;53.170;18.160;2024-02-15T12:13:17;101462.63;;;10.15;100.00
81299;BME280;70766;53.170;18.160;2024-02-15T12:16:05;101459.41;;;10.24;100.00
81299;BME280;70766;53.170;18.160;2024-02-15T12:18:51;101458.67;;;10.27;100.00
81299;BME280;70766;53.170;18.160;2024-02-15T12:21:25;101460.58;;;10.19;100.00
81299;BME280;70766;53.170;18.160;2024-02-15T12:23:55;101461.71;;;10.12;100.00
81299;BME280;70766;53.170;18.160;2024-02-15T12:26:24;101460.69;;;10.02;100.00
81299;BME280;70766;53.170;18.160;2024-02-15T12:28:55;101462.61;;;9.96;100.00
81299;BME280;70766;53.170;18.160;2024-02-15T12:31:27;101462.22;;;9.91;100.00
81299;BME280;70766;53.170;18.160;2024-02-15T12:34:02;101461.92;;;9.89;100.00
81299;BME280;70766;53.170;18.160;2024-02-15T12:36:37;101459.74;;;9.90;100.00
81299;BME280;70766;53.170;18.160;2024-02-15T12:39:07;101458.21;;;9.85;100.00
81299;BME280;70766;53.170;18.160;2024-02-15T12:41:41;101460.60;;;9.82;100.00
81299;BME280;70766;53.170;18.160;2024-02-15T12:44:10;101457.59;;;9.82;100.00
81299;BME280;70766;53.170;18.160;2024-02-15T12:46:38;101454.83;;;9.80;100.00
81299;BME280;70766;53.170;18.160;2024-02-15T12:49:17;101456.80;;;9.81;100.00
81299;BME280;70766;53.170;18.160;2024-02-15T12:57:41;101453.48;;;9.84;100.00
81299;BME280;70766;53.170;18.160;2024-02-15T13:00:13;101449.13;;;9.83;100.00
81299;BME280;70766;53.170;18.160;2024-02-15T13:02:50;101448.80;;;9.83;100.00
81299;BME280;70766;53.170;18.160;2024-02-15T13:05:19;101448.13;;;9.81;100.00
81299;BME280;70766;53.170;18.160;2024-02-15T13:07:50;101447.77;;;9.83;100.00
81299;BME280;70766;53.170;18.160;2024-02-15T13:10:19;101445.55;;;9.82;100.00
81299;BME280;70766;53.170;18.160;2024-02-15T13:12:47;101448.23;;;9.85;100.00
81299;BME280;70766;53.170;18.160;2024-02-15T13:15:16;101446.68;;;9.88;100.00
81299;BME280;70766;53.170;18.160;2024-02-15T13:17:55;101448.61;;;9.92;100.00
81299;BME280;70766;53.170;18.160;2024-02-15T13:20:23;101449.16;;;9.95;100.00